CheckWX is a tool to help pilots better visualize weather data.  It is not intended as a substitute for an official pre-flight weather briefing.

21:08:05 UTC

RCKH METAR
Kaohsiung International Airport
Kaohsiung City, Taiwan
Current

1 hour ago

RCKH 292000Z 07004KT 030V100 9999 FEW014 BKN050 22/17 Q1012 NOSIG RMK A2990
Observed
Mar-29 @ 20:00 UTC
Wind
  • 070° at 4 KTS
Visibility
10,000+ meters
Flight Rules
VFR
Cloud Levels
  • Few at 1,400' AGL
  • Broken at 5,000' AGL
Temperature
22°C / 72°F
Dewpoint
17°C / 63°F
Humidity
73%
Altimeter
29.88" Hg
Pressure
1011.92 hPa
Previous

2 hours ago

RCKH 291900Z 07005KT 9999 FEW014 SCT030 BKN050 23/17 Q1012 NOSIG RMK A2990
Observed
Mar-29 @ 19:00 UTC
Wind
  • 070° at 5 KTS
Visibility
10,000+ meters
Flight Rules
VFR
Cloud Levels
  • Few at 1,400' AGL
  • Scattered at 3,000' AGL
  • Broken at 5,000' AGL
Temperature
23°C / 73°F
Dewpoint
17°C / 63°F
Humidity
69%
Altimeter
29.88" Hg
Pressure
1011.92 hPa
Previous

3 hours ago

RCKH 291800Z 05004KT 020V080 9999 FEW014 SCT025 BKN050 23/17 Q1012 NOSIG RMK A2991
Observed
Mar-29 @ 18:00 UTC
Wind
  • 050° at 4 KTS
Visibility
10,000+ meters
Flight Rules
VFR
Cloud Levels
  • Few at 1,400' AGL
  • Scattered at 2,500' AGL
  • Broken at 5,000' AGL
Temperature
23°C / 73°F
Dewpoint
17°C / 63°F
Humidity
69%
Altimeter
29.88" Hg
Pressure
1011.92 hPa